Bookmark and Share
Track history (hours):
 

Island Breeze

More information available from US FCC via Universal Licensing System and Coast Guard Vessel Documentation Center.

Last reported at 2014-Apr-18 15:21 UTC. Time now 2014-Apr-18 16:14 UTC.
Position N 47°08' W 122°39'.

Length 18 m.

MMSI: 366800090.

NotesDate/timePositionNaut miles runAvg speedWind from/ knotsBaromVisibWave heightAir tempDewpointWater temp
2014-Apr-18 15:21N 47°08' W 122°39'0 0.0
2014-Apr-18 14:32N 47°08' W 122°39'0 0.2
2014-Apr-18 13:29N 47°08' W 122°39'4 3.8
2014-Apr-18 12:24N 47°12' W 122°36'7 8.1
2014-Apr-18 11:33N 47°19' W 122°33'7 7.3
2014-Apr-18 10:32N 47°26' W 122°31'7 6.5
2014-Apr-18 09:32N 47°32' W 122°28'2 7.3
2014-Apr-18 09:14N 47°34' W 122°28'5 7.0
2014-Apr-18 08:33N 47°39' W 122°28'0 6.2
2014-Apr-18 08:29N 47°39' W 122°28'3 3.5
2014-Apr-18 07:33N 47°40' W 122°24'0 3.1
2014-Apr-18 07:29N 47°40' W 122°23'4 3.9
2014-Apr-18 06:34N 47°39' W 122°18'0 5.8
2014-Apr-18 06:29N 47°39' W 122°18'5 5.5
2014-Apr-18 05:33N 47°44' W 122°16'1 0.9
2014-Apr-18 04:33N 47°45' W 122°16'1 1.4
2014-Apr-18 03:34N 47°43' W 122°16'1 6.1
2014-Apr-18 03:28N 47°43' W 122°16'4 4.6
2014-Apr-18 02:32N 47°39' W 122°18'2 3.4
2014-Apr-18 02:03N 47°39' W 122°20'2 4.2
2014-Apr-18 01:34N 47°40' W 122°23'0 3.0
2014-Apr-18 01:29N 47°40' W 122°23'0 0.1
2014-Apr-18 00:33N 47°40' W 122°23'0 0.0
2014-Apr-18 00:29N 47°40' W 122°23'0 0.4
2014-Apr-17 23:34N 47°40' W 122°24'0 0.0
2014-Apr-17 23:33N 47°40' W 122°24'1 0.6
2014-Apr-17 22:34N 47°40' W 122°24'0 0.0
2014-Apr-17 22:33N 47°40' W 122°24'3 2.7
2014-Apr-17 21:34N 47°38' W 122°27'0 0.0
2014-Apr-17 21:33N 47°38' W 122°27'7 6.7
2014-Apr-17 20:34N 47°31' W 122°29'0 0.0
2014-Apr-17 20:33N 47°31' W 122°29'8 8.1
2014-Apr-17 19:33N 47°24' W 122°32'0 0.0
2014-Apr-17 19:33N 47°24' W 122°32'9 9.4
2014-Apr-17 18:33N 47°14' W 122°34'7 3.5
2014-Apr-17 16:33N 47°08' W 122°39'0 0.0
2014-Apr-17 14:33N 47°08' W 122°39'1 0.6
2014-Apr-17 13:33N 47°09' W 122°38'2 1.7
2014-Apr-17 12:32N 47°10' W 122°38'9 9.1
2014-Apr-17 11:33N 47°19' W 122°33'8 7.7
2014-Apr-17 10:34N 47°26' W 122°32'8 7.6
2014-Apr-17 09:34N 47°33' W 122°28'3 7.1
2014-Apr-17 09:04N 47°36' W 122°24'2 4.6
2014-Apr-17 08:34N 47°34' W 122°21'0 0.0
2014-Apr-17 08:29N 47°34' W 122°21'0 0.5
2014-Apr-17 07:33N 47°34' W 122°21'0 6.7
2014-Apr-17 07:29N 47°34' W 122°21'0 0.4
2014-Apr-17 06:33N 47°34' W 122°21'0 0.1
2014-Apr-17 06:29N 47°34' W 122°21'0 0.4
2014-Apr-17 05:44N 47°34' W 122°21'0 0.0
2014-Apr-17 05:33N 47°34' W 122°21'0 0.0
2014-Apr-17 04:33N 47°34' W 122°21'0 0.0
2014-Apr-17 04:29N 47°34' W 122°21'2 1.7
2014-Apr-17 03:34N 47°35' W 122°22'0 0.0
2014-Apr-17 03:29N 47°35' W 122°22'2 2.1
2014-Apr-17 02:34N 47°33' W 122°21'0 7.0
2014-Apr-17 02:29N 47°34' W 122°21'1 0.6
2014-Apr-17 01:34N 47°34' W 122°21'0 0.0
2014-Apr-17 01:28N 47°34' W 122°21'0 0.0
2014-Apr-17 00:34N 47°34' W 122°21'0 0.0
2014-Apr-17 00:34N 47°34' W 122°21'0 0.0
2014-Apr-16 23:34N 47°34' W 122°21'0 0.0
2014-Apr-16 23:33N 47°34' W 122°21'0 0.0
2014-Apr-16 22:33N 47°34' W 122°21'0 0.0
2014-Apr-16 22:29N 47°34' W 122°21'0 0.0
2014-Apr-16 21:33N 47°34' W 122°21'0 0.0
2014-Apr-16 21:33N 47°34' W 122°21'0 0.0
2014-Apr-16 20:33N 47°34' W 122°21'0 0.0
2014-Apr-16 20:33N 47°34' W 122°21'0 0.0
2014-Apr-16 19:33N 47°34' W 122°21'0 0.0
2014-Apr-16 18:33N 47°34' W 122°21'0 0.0
2014-Apr-16 17:33N 47°34' W 122°21'0 0.0
2014-Apr-16 17:33N 47°34' W 122°21'0 0.0
2014-Apr-16 16:33N 47°34' W 122°21'0 0.0
2014-Apr-16 16:33N 47°34' W 122°21'0 0.0
2014-Apr-16 15:33N 47°34' W 122°21'0 0.0
2014-Apr-16 15:33N 47°34' W 122°21'0 0.0
2014-Apr-16 14:33N 47°34' W 122°21'0 0.0
2014-Apr-16 14:33N 47°34' W 122°21'0 0.5
2014-Apr-16 13:33N 47°34' W 122°21'0 0.0
2014-Apr-16 13:33N 47°34' W 122°21'0 0.3
2014-Apr-16 12:33N 47°34' W 122°21'0 0.0
2014-Apr-16 12:33N 47°34' W 122°21'1 0.7
2014-Apr-16 11:33N 47°34' W 122°21'0 0.0
2014-Apr-16 11:32N 47°34' W 122°21'0 0.0
2014-Apr-16 10:33N 47°34' W 122°21'0 0.0
2014-Apr-16 10:33N 47°34' W 122°21'4 4.2
2014-Apr-16 09:33N 47°38' W 122°25'0 5.7
2014-Apr-16 09:33N 47°38' W 122°25'2 2.5
2014-Apr-16 08:33N 47°40' W 122°24'0 0.0
2014-Apr-16 08:33N 47°40' W 122°24'5 4.7
2014-Apr-16 07:33N 47°39' W 122°17'0 7.3
2014-Apr-16 07:33N 47°39' W 122°17'6 5.9
2014-Apr-16 06:33N 47°45' W 122°16'0 4.0
2014-Apr-16 06:28N 47°45' W 122°16'1 0.6
2014-Apr-16 05:32N 47°45' W 122°15'0 0.0
2014-Apr-16 04:33N 47°45' W 122°15'3 3.0
2014-Apr-16 03:33N 47°42' W 122°16'1 6.3
2014-Apr-16 03:27N 47°42' W 122°15'4 4.0
2014-Apr-16 02:28N 47°39' W 122°19'0 0.6
2014-Apr-16 02:27N 47°39' W 122°19'3 3.1
2014-Apr-16 01:33N 47°40' W 122°23'0 0.6
2014-Apr-16 01:32N 47°40' W 122°23'0 0.1
2014-Apr-16 00:33N 47°40' W 122°24'0 0.0
2014-Apr-16 00:32N 47°40' W 122°24'0 0.2
2014-Apr-15 23:33N 47°40' W 122°24'0 0.3
2014-Apr-15 23:32N 47°40' W 122°24'2 2.5
2014-Apr-15 22:33N 47°39' W 122°27'0 5.6
2014-Apr-15 22:32N 47°39' W 122°27'6 6.4
2014-Apr-15 21:33N 47°32' W 122°28'0 5.5
2014-Apr-15 21:32N 47°32' W 122°28'7 6.7
2014-Apr-15 20:33N 47°26' W 122°31'0 6.0
2014-Apr-15 20:32N 47°26' W 122°31'7 7.4
2014-Apr-15 19:33N 47°19' W 122°33'8 7.6
2014-Apr-15 18:33N 47°12' W 122°36'3 3.1
2014-Apr-15 17:29N 47°09' W 122°38'1 0.5
2014-Apr-15 16:15N 47°08' W 122°39'1 1.8
2014-Apr-15 15:29N 47°09' W 122°38'6 6.4
2014-Apr-15 14:33N 47°15' W 122°34'5 2.4
2014-Apr-15 12:34N 47°19' W 122°34'1119.6
2014-Apr-15 12:01N 47°30' W 122°30'4 8.7
2014-Apr-15 11:34N 47°26' W 122°32'8176.0
2014-Apr-15 11:31N 47°33' W 122°28'0 0.3
2014-Apr-15 10:34N 47°33' W 122°28'7199.9
2014-Apr-15 10:32N 47°40' W 122°27'0 0.2
2014-Apr-15 09:34N 47°40' W 122°27'394.5
2014-Apr-15 09:32N 47°39' W 122°22'0 0.1
2014-Apr-15 08:34N 47°39' W 122°22'514.1
2014-Apr-15 08:12N 47°42' W 122°15'2 3.5
2014-Apr-15 07:33N 47°40' W 122°15'6156.7
2014-Apr-15 07:31N 47°45' W 122°15'0 0.2
2014-Apr-15 06:33N 47°45' W 122°16'  
2014-Apr-11 21:23N 47°45' W 122°15'0 0.0
2014-Apr-11 20:33N 47°45' W 122°15'0 0.2
2014-Apr-11 20:18N 47°45' W 122°15'0 0.7
2014-Apr-11 19:33N 47°45' W 122°16'0 0.0
2014-Apr-11 18:33N 47°45' W 122°16'0 0.0
2014-Apr-11 17:33N 47°45' W 122°16'0 0.5
2014-Apr-11 16:33N 47°45' W 122°15'0 0.5
2014-Apr-11 15:32N 47°45' W 122°16'0 0.2
2014-Apr-11 14:33N 47°45' W 122°16'0 0.0
2014-Apr-11 13:58N 47°45' W 122°16'1 3.4
2014-Apr-11 13:33N 47°44' W 122°16'3 6.3
2014-Apr-11 13:02N 47°41' W 122°14'3 5.4
2014-Apr-11 12:28N 47°39' W 122°18'0 5.0
2014-Apr-11 12:23N 47°39' W 122°18'3 3.6
2014-Apr-11 11:33N 47°40' W 122°23'0 0.0
2014-Apr-11 11:33N 47°40' W 122°23'2 1.9
2014-Apr-11 10:33N 47°41' W 122°25'0 6.9
2014-Apr-11 10:33N 47°41' W 122°25'5 5.0
2014-Apr-11 09:33N 47°36' W 122°26'0 0.0
2014-Apr-11 09:33N 47°36' W 122°26'5 4.9
2014-Apr-11 08:33N 47°31' W 122°29'0 3.8
2014-Apr-11 08:33N 47°31' W 122°29'5 5.2
2014-Apr-11 07:33N 47°26' W 122°31'1 5.4
2014-Apr-11 07:28N 47°26' W 122°31'6 6.2
2014-Apr-11 06:33N 47°20' W 122°33'4 4.3
2014-Apr-11 05:33N 47°16' W 122°34'6 5.8
2014-Apr-11 04:33N 47°11' W 122°38'3 2.6
2014-Apr-11 03:25N 47°08' W 122°39'0 0.0
2014-Apr-11 02:31N 47°08' W 122°39'0 0.0
2014-Apr-11 01:33N 47°08' W 122°39'0 0.0
2014-Apr-11 00:30N 47°08' W 122°39'5 4.9
2014-Apr-10 23:30N 47°12' W 122°36'7 6.9
2014-Apr-10 22:33N 47°19' W 122°33'8 7.8
2014-Apr-10 21:33N 47°27' W 122°31'5 8.3
2014-Apr-10 20:55N 47°32' W 122°28'3 9.1
2014-Apr-10 20:33N 47°35' W 122°28'1 8.8
2014-Apr-10 20:30N 47°35' W 122°28'5 5.7
2014-Apr-10 19:33N 47°40' W 122°24'0 2.3
2014-Apr-10 19:30N 47°40' W 122°24'0 0.2
2014-Apr-10 18:33N 47°40' W 122°23'0 0.7
2014-Apr-10 18:30N 47°40' W 122°23'0 0.3
2014-Apr-10 17:33N 47°40' W 122°23'0 0.0
2014-Apr-10 17:30N 47°40' W 122°23'2 2.0
2014-Apr-10 16:33N 47°39' W 122°21'0 4.3
2014-Apr-10 16:30N 47°39' W 122°20'5 5.1
2014-Apr-10 15:33N 47°42' W 122°15'1 7.7
2014-Apr-10 15:29N 47°42' W 122°15'3 3.3
2014-Apr-10 14:31N 47°45' W 122°15'1 0.8
2014-Apr-10 13:33N 47°45' W 122°16'3 5.8
2014-Apr-10 13:04N 47°42' W 122°15'3 5.5
2014-Apr-10 12:33N 47°39' W 122°16'0 5.8
2014-Apr-10 12:28N 47°39' W 122°16'4 4.3
2014-Apr-10 11:33N 47°39' W 122°22'0 5.4
2014-Apr-10 11:29N 47°40' W 122°22'3 2.9
2014-Apr-10 10:32N 47°40' W 122°26'6 6.2
2014-Apr-10 09:33N 47°34' W 122°26'6 6.2
2014-Apr-10 08:33N 47°29' W 122°30'3 6.2
2014-Apr-10 08:09N 47°26' W 122°31'4 6.6
2014-Apr-10 07:33N 47°22' W 122°32'5 5.1
2014-Apr-10 06:33N 47°17' W 122°32'4 4.4
2014-Apr-10 05:33N 47°13' W 122°35'6 5.7
2014-Apr-10 04:32N 47°08' W 122°39'0 0.0
2014-Apr-10 03:33N 47°08' W 122°39'1 0.3
2014-Apr-10 01:29N 47°09' W 122°38'1 0.6
2014-Apr-10 00:33N 47°09' W 122°39'1 0.6
2014-Apr-09 23:29N 47°09' W 122°39'1 1.5
2014-Apr-09 22:33N 47°11' W 122°38'6 6.2
2014-Apr-09 21:33N 47°16' W 122°33'7 6.9
2014-Apr-09 20:33N 47°23' W 122°32'7 6.9
2014-Apr-09 19:33N 47°30' W 122°30'5 7.2
2014-Apr-09 18:53N 47°34' W 122°28'2 7.4
2014-Apr-09 18:33N 47°37' W 122°28'2 7.1
2014-Apr-09 18:13N 47°39' W 122°27'3 3.8
2014-Apr-09 17:33N 47°40' W 122°24'0 0.0
2014-Apr-09 17:33N 47°40' W 122°24'3 2.9
2014-Apr-09 16:33N 47°39' W 122°20'0 2.7
2014-Apr-09 16:33N 47°39' W 122°20'4 4.1
2014-Apr-09 15:33N 47°40' W 122°15'2 2.7
2014-Apr-09 14:57N 47°42' W 122°15'0 0.7
2014-Apr-09 14:31N 47°42' W 122°15'0 0.1
2014-Apr-09 14:26N 47°42' W 122°15'0 0.2
2014-Apr-09 13:31N 47°43' W 122°16'3 3.0
2014-Apr-09 12:33N 47°45' W 122°15'1 1.1
2014-Apr-09 11:33N 47°44' W 122°16'3 5.2
2014-Apr-09 11:00N 47°42' W 122°15'3 5.7
2014-Apr-09 10:33N 47°39' W 122°16'3 4.1
2014-Apr-09 09:55N 47°39' W 122°20'1 3.0
2014-Apr-09 09:33N 47°39' W 122°21'0 4.0
2014-Apr-09 09:30N 47°39' W 122°21'2 2.4
2014-Apr-09 08:33N 47°40' W 122°24'0 3.7
2014-Apr-09 08:30N 47°40' W 122°25'4 3.9
2014-Apr-09 07:33N 47°37' W 122°24'0 7.1
2014-Apr-09 07:30N 47°37' W 122°23'3 2.7
2014-Apr-09 06:33N 47°34' W 122°21'0 0.0
2014-Apr-09 06:30N 47°34' W 122°21'0 0.0
2014-Apr-09 05:50N 47°34' W 122°21'0 0.0
2014-Apr-09 05:33N 47°34' W 122°21'0 0.0
2014-Apr-09 04:25N 47°34' W 122°21'0 0.0
2014-Apr-09 04:25N 47°34' W 122°21'0 0.0
2014-Apr-09 03:33N 47°34' W 122°21'0 0.0
2014-Apr-09 03:30N 47°34' W 122°21'0 0.0
2014-Apr-09 02:33N 47°34' W 122°21'0 0.0
2014-Apr-09 02:30N 47°34' W 122°21'  

Dump ship's entire track history

sailing weather and tide predictions

Island Breeze — WDA3596 — position and weather